עמוד ראשי
METAR-TAF:

METAR-TAF

שדות תעופה :

סאיפאן, איי מריאנה, ארצות הברית

קו רוחב: 15-07N, קו אורך: 145-44E, גובה: 66מטר

תצפית מזג אוויר נוכחית

הדו"ח נערך לפני 39דקות, בשעה 19:54 UTC
רוח 8קשר מכיוון מזרח/דרום-מזרח
טמפרטורת 28 צלסיוס
לחות 79%
לחץ 1012 hPa
ראות: 16.1קילומטר
מעט עננים בגובה 2200רגל

METAR: PGSN 161954Z 11008KT 10SM FEW022 28/24 A2987 RMK AO2 SLP135 T02830239

זמן: 06:33 (20:33 UTC)

תחזית

הדו"ח נערך לפני 3 שעות ו 13דקות, בשעה 17:20 UTC
תחזית בתוקף מ 16 ב 18 UTC עד 17 ב 18 UTC
רוח 14קשר מכיוון מזרח
ראות: 10קילומטר
עננים פזורים בגובה 1800רגל
עננים פזורים בגובה 3500רגל
ממטרים במרחב,

TAF: PGSN 161720Z 1618/1718 10014KT P6SM VCSH SCT018 SCT035

תצפיות ותחזיות מזג אוויר לגבי יותר מ- 4,000 שדות תעופה ברחבי העולם. דוחות METAR ו- TAF.

התחנות הזמינות מסומנות בנקודות צהובות ואדומות על גבי המפה.

העבר את העכבר לנקודה הצבעונית על מנת לראות את שם התחנה.

לאחר מכן, לחץ כדי לראות את תוכן ואת תחזיות מזג האוויר.

כדי לשנות את המפה: לחץ על הכפתורים הירוקים עם הפלוס השחור כדי להתקרב; על הכפתור הירוק עם המקף כדי להתרחק; או בחיצים הירוקים למפות סמוכות.


METAR-TAF: